CheckWX is a tool to help pilots better visualize weather data.  It is not intended as a substitute for an official pre-flight weather briefing.

12:54:11 UTC

LEXJ TAF
Santander Airport
Santander, Spain
TAF LEXJ 220800Z 2209/2309 VRB04KT CAVOK TX18/2213Z TN04/2306Z TEMPO 2211/2219 05010KT

Mar-22@
09:00 UTC

Mar-22 @ 09:00 UTC

Mar-23@
09:00 UTC

Mar-23 @ 09:00 UTC

TAF LEXJ 220800Z 2209/2309 VRB04KT CAVOK TX18/2213Z TN04/2306Z
Wind
  • Variable at 4 KTS
Cloud Levels
  • No significant clouds

Mar-22@
11:00 UTC

Mar-22 @ 11:00 UTC

Mar-22@
19:00 UTC

Mar-22 @ 19:00 UTC

TEMPO 2211/2219 05010KT

Temporary

Temporary Changes expected for less than half the time period

Wind
  • 050° at 10 KTS